sensor_id;sensor_type;location;lat;lon;timestamp;P1;durP1;ratioP1;P2;durP2;ratioP2
60675;SDS011;46716;38.014;-7.874;2022-10-26T00:01:20;9.07;;;2.10;;
60675;SDS011;46716;38.014;-7.874;2022-10-26T00:03:21;6.32;;;1.90;;
60675;SDS011;46716;38.014;-7.874;2022-10-26T00:05:23;8.10;;;2.10;;
60675;SDS011;46716;38.014;-7.874;2022-10-26T00:07:24;9.52;;;2.15;;
60675;SDS011;46716;38.014;-7.874;2022-10-26T00:09:25;4.82;;;1.90;;
60675;SDS011;46716;38.014;-7.874;2022-10-26T00:11:25;7.93;;;1.60;;
60675;SDS011;46716;38.014;-7.874;2022-10-26T00:13:26;7.30;;;2.13;;
60675;SDS011;46716;38.014;-7.874;2022-10-26T00:15:28;5.45;;;1.70;;
60675;SDS011;46716;38.014;-7.874;2022-10-26T00:17:29;6.93;;;1.80;;
60675;SDS011;46716;38.014;-7.874;2022-10-26T00:19:31;9.10;;;1.90;;
60675;SDS011;46716;38.014;-7.874;2022-10-26T00:21:34;4.82;;;1.67;;
60675;SDS011;46716;38.014;-7.874;2022-10-26T00:23:35;5.82;;;1.85;;
60675;SDS011;46716;38.014;-7.874;2022-10-26T00:25:36;7.55;;;2.10;;
60675;SDS011;46716;38.014;-7.874;2022-10-26T00:27:37;6.35;;;2.15;;
60675;SDS011;46716;38.014;-7.874;2022-10-26T00:29:38;6.93;;;1.80;;
60675;SDS011;46716;38.014;-7.874;2022-10-26T00:31:39;6.18;;;1.85;;
60675;SDS011;46716;38.014;-7.874;2022-10-26T00:33:40;9.40;;;2.00;;
60675;SDS011;46716;38.014;-7.874;2022-10-26T00:35:41;11.70;;;2.40;;
60675;SDS011;46716;38.014;-7.874;2022-10-26T00:37:44;8.80;;;2.33;;
60675;SDS011;46716;38.014;-7.874;2022-10-26T00:39:45;8.35;;;3.08;;
60675;SDS011;46716;38.014;-7.874;2022-10-26T00:41:46;8.45;;;2.65;;
60675;SDS011;46716;38.014;-7.874;2022-10-26T00:43:47;6.70;;;2.28;;
60675;SDS011;46716;38.014;-7.874;2022-10-26T00:45:49;8.83;;;2.93;;
60675;SDS011;46716;38.014;-7.874;2022-10-26T00:48:03;5.05;;;2.42;;
60675;SDS011;46716;38.014;-7.874;2022-10-26T00:50:11;9.68;;;2.95;;
60675;SDS011;46716;38.014;-7.874;2022-10-26T00:52:35;5.60;;;2.53;;
60675;SDS011;46716;38.014;-7.874;2022-10-26T00:54:37;6.55;;;1.88;;
60675;SDS011;46716;38.014;-7.874;2022-10-26T00:56:38;10.70;;;2.65;;
60675;SDS011;46716;38.014;-7.874;2022-10-26T00:58:40;7.93;;;2.42;;
60675;SDS011;46716;38.014;-7.874;2022-10-26T01:00:42;8.00;;;2.03;;
60675;SDS011;46716;38.014;-7.874;2022-10-26T01:02:44;10.18;;;2.65;;
60675;SDS011;46716;38.014;-7.874;2022-10-26T01:04:48;6.05;;;2.20;;
60675;SDS011;46716;38.014;-7.874;2022-10-26T01:06:49;9.20;;;2.38;;
60675;SDS011;46716;38.014;-7.874;2022-10-26T01:08:51;5.35;;;2.15;;
60675;SDS011;46716;38.014;-7.874;2022-10-26T01:10:53;6.00;;;2.42;;
60675;SDS011;46716;38.014;-7.874;2022-10-26T01:12:56;8.18;;;2.17;;
60675;SDS011;46716;38.014;-7.874;2022-10-26T01:14:58;8.02;;;2.45;;
60675;SDS011;46716;38.014;-7.874;2022-10-26T01:21:39;8.35;;;2.58;;
60675;SDS011;46716;38.014;-7.874;2022-10-26T01:26:52;11.85;;;3.20;;
60675;SDS011;46716;38.014;-7.874;2022-10-26T01:29:06;8.37;;;2.57;;
60675;SDS011;46716;38.014;-7.874;2022-10-26T01:31:10;8.82;;;3.05;;
60675;SDS011;46716;38.014;-7.874;2022-10-26T01:40:33;10.63;;;3.40;;
60675;SDS011;46716;38.014;-7.874;2022-10-26T01:42:39;7.07;;;3.33;;
60675;SDS011;46716;38.014;-7.874;2022-10-26T01:44:55;7.28;;;2.78;;
60675;SDS011;46716;38.014;-7.874;2022-10-26T01:47:00;7.75;;;3.10;;
60675;SDS011;46716;38.014;-7.874;2022-10-26T01:49:05;6.68;;;2.60;;
60675;SDS011;46716;38.014;-7.874;2022-10-26T01:51:10;6.55;;;3.22;;
60675;SDS011;46716;38.014;-7.874;2022-10-26T01:53:13;13.15;;;3.42;;
60675;SDS011;46716;38.014;-7.874;2022-10-26T01:57:38;6.32;;;2.78;;
60675;SDS011;46716;38.014;-7.874;2022-10-26T01:59:43;9.52;;;2.83;;
60675;SDS011;46716;38.014;-7.874;2022-10-26T02:11:08;9.68;;;3.60;;
60675;SDS011;46716;38.014;-7.874;2022-10-26T02:15:47;19.85;;;3.95;;
60675;SDS011;46716;38.014;-7.874;2022-10-26T02:18:34;13.80;;;3.75;;
60675;SDS011;46716;38.014;-7.874;2022-10-26T02:20:45;11.68;;;3.00;;
60675;SDS011;46716;38.014;-7.874;2022-10-26T02:22:50;9.13;;;3.33;;
60675;SDS011;46716;38.014;-7.874;2022-10-26T02:24:53;10.40;;;3.40;;
60675;SDS011;46716;38.014;-7.874;2022-10-26T02:26:56;9.82;;;3.65;;
60675;SDS011;46716;38.014;-7.874;2022-10-26T02:29:01;10.63;;;3.60;;
60675;SDS011;46716;38.014;-7.874;2022-10-26T02:31:05;11.95;;;4.20;;
60675;SDS011;46716;38.014;-7.874;2022-10-26T02:33:08;13.25;;;3.85;;
60675;SDS011;46716;38.014;-7.874;2022-10-26T02:35:11;10.95;;;4.40;;
60675;SDS011;46716;38.014;-7.874;2022-10-26T02:37:15;13.00;;;4.00;;
60675;SDS011;46716;38.014;-7.874;2022-10-26T02:39:19;11.65;;;3.92;;
60675;SDS011;46716;38.014;-7.874;2022-10-26T02:41:21;11.57;;;4.40;;
60675;SDS011;46716;38.014;-7.874;2022-10-26T02:43:24;10.60;;;4.30;;
60675;SDS011;46716;38.014;-7.874;2022-10-26T02:45:30;10.48;;;4.07;;
60675;SDS011;46716;38.014;-7.874;2022-10-26T02:47:36;13.10;;;4.50;;
60675;SDS011;46716;38.014;-7.874;2022-10-26T02:49:38;12.95;;;4.03;;
60675;SDS011;46716;38.014;-7.874;2022-10-26T02:53:53;18.67;;;4.53;;
60675;SDS011;46716;38.014;-7.874;2022-10-26T02:56:02;11.15;;;4.75;;
60675;SDS011;46716;38.014;-7.874;2022-10-26T02:58:12;11.50;;;4.55;;
60675;SDS011;46716;38.014;-7.874;2022-10-26T03:00:18;13.25;;;4.78;;
60675;SDS011;46716;38.014;-7.874;2022-10-26T03:02:19;11.25;;;4.57;;
60675;SDS011;46716;38.014;-7.874;2022-10-26T03:04:26;18.17;;;5.30;;
60675;SDS011;46716;38.014;-7.874;2022-10-26T03:06:31;16.17;;;5.45;;
60675;SDS011;46716;38.014;-7.874;2022-10-26T03:08:32;11.43;;;5.32;;
60675;SDS011;46716;38.014;-7.874;2022-10-26T03:10:34;17.10;;;6.45;;
60675;SDS011;46716;38.014;-7.874;2022-10-26T03:12:42;12.50;;;5.95;;
60675;SDS011;46716;38.014;-7.874;2022-10-26T03:14:43;12.48;;;6.05;;
60675;SDS011;46716;38.014;-7.874;2022-10-26T03:16:44;9.82;;;5.35;;
60675;SDS011;46716;38.014;-7.874;2022-10-26T03:18:45;17.40;;;6.32;;
60675;SDS011;46716;38.014;-7.874;2022-10-26T03:20:46;11.88;;;5.25;;
60675;SDS011;46716;38.014;-7.874;2022-10-26T03:22:47;16.60;;;5.68;;
60675;SDS011;46716;38.014;-7.874;2022-10-26T03:24:48;8.50;;;4.43;;
60675;SDS011;46716;38.014;-7.874;2022-10-26T03:26:49;11.07;;;5.20;;
60675;SDS011;46716;38.014;-7.874;2022-10-26T03:28:50;16.33;;;5.45;;
60675;SDS011;46716;38.014;-7.874;2022-10-26T03:30:51;10.70;;;4.65;;
60675;SDS011;46716;38.014;-7.874;2022-10-26T03:32:52;15.98;;;4.53;;
60675;SDS011;46716;38.014;-7.874;2022-10-26T03:34:53;13.90;;;5.30;;
60675;SDS011;46716;38.014;-7.874;2022-10-26T03:36:54;14.18;;;5.40;;
60675;SDS011;46716;38.014;-7.874;2022-10-26T03:38:55;11.00;;;4.38;;
60675;SDS011;46716;38.014;-7.874;2022-10-26T03:40:56;17.23;;;5.22;;
60675;SDS011;46716;38.014;-7.874;2022-10-26T03:42:57;15.63;;;5.43;;
60675;SDS011;46716;38.014;-7.874;2022-10-26T03:44:58;15.82;;;6.25;;
60675;SDS011;46716;38.014;-7.874;2022-10-26T03:46:59;13.20;;;4.57;;
60675;SDS011;46716;38.014;-7.874;2022-10-26T03:49:00;16.13;;;4.43;;
60675;SDS011;46716;38.014;-7.874;2022-10-26T03:51:01;19.63;;;5.28;;
60675;SDS011;46716;38.014;-7.874;2022-10-26T03:53:02;13.27;;;4.53;;
60675;SDS011;46716;38.014;-7.874;2022-10-26T03:55:03;12.73;;;4.63;;
60675;SDS011;46716;38.014;-7.874;2022-10-26T03:57:05;8.45;;;4.15;;
60675;SDS011;46716;38.014;-7.874;2022-10-26T03:59:06;17.63;;;4.82;;
60675;SDS011;46716;38.014;-7.874;2022-10-26T04:01:07;12.55;;;4.85;;
60675;SDS011;46716;38.014;-7.874;2022-10-26T04:03:08;10.63;;;4.50;;
60675;SDS011;46716;38.014;-7.874;2022-10-26T04:05:09;14.18;;;4.72;;
60675;SDS011;46716;38.014;-7.874;2022-10-26T04:07:10;8.88;;;4.35;;
60675;SDS011;46716;38.014;-7.874;2022-10-26T04:09:11;16.15;;;4.63;;
60675;SDS011;46716;38.014;-7.874;2022-10-26T04:11:11;10.93;;;4.40;;
60675;SDS011;46716;38.014;-7.874;2022-10-26T04:13:12;17.13;;;4.43;;
60675;SDS011;46716;38.014;-7.874;2022-10-26T04:15:14;11.25;;;4.15;;
60675;SDS011;46716;38.014;-7.874;2022-10-26T04:17:15;10.05;;;4.05;;
60675;SDS011;46716;38.014;-7.874;2022-10-26T04:19:16;12.80;;;3.63;;
60675;SDS011;46716;38.014;-7.874;2022-10-26T04:21:17;16.48;;;4.22;;
60675;SDS011;46716;38.014;-7.874;2022-10-26T04:23:18;11.75;;;4.13;;
60675;SDS011;46716;38.014;-7.874;2022-10-26T04:25:19;14.23;;;4.70;;
60675;SDS011;46716;38.014;-7.874;2022-10-26T04:27:20;19.00;;;5.00;;
60675;SDS011;46716;38.014;-7.874;2022-10-26T04:29:21;13.05;;;4.47;;
60675;SDS011;46716;38.014;-7.874;2022-10-26T04:31:22;10.38;;;3.97;;
60675;SDS011;46716;38.014;-7.874;2022-10-26T04:33:24;16.75;;;4.32;;
60675;SDS011;46716;38.014;-7.874;2022-10-26T04:35:25;10.68;;;4.13;;
60675;SDS011;46716;38.014;-7.874;2022-10-26T04:37:27;9.18;;;4.47;;
60675;SDS011;46716;38.014;-7.874;2022-10-26T04:39:28;9.02;;;3.92;;
60675;SDS011;46716;38.014;-7.874;2022-10-26T04:41:29;9.90;;;3.80;;
60675;SDS011;46716;38.014;-7.874;2022-10-26T04:43:30;10.90;;;4.22;;
60675;SDS011;46716;38.014;-7.874;2022-10-26T04:45:31;10.73;;;5.00;;
60675;SDS011;46716;38.014;-7.874;2022-10-26T04:47:32;11.57;;;4.00;;
60675;SDS011;46716;38.014;-7.874;2022-10-26T04:49:33;13.90;;;4.22;;
60675;SDS011;46716;38.014;-7.874;2022-10-26T04:51:33;9.35;;;4.20;;
60675;SDS011;46716;38.014;-7.874;2022-10-26T04:53:34;17.58;;;5.68;;
60675;SDS011;46716;38.014;-7.874;2022-10-26T04:55:35;14.82;;;5.00;;
60675;SDS011;46716;38.014;-7.874;2022-10-26T04:57:36;10.48;;;4.40;;
60675;SDS011;46716;38.014;-7.874;2022-10-26T04:59:37;14.23;;;4.47;;
60675;SDS011;46716;38.014;-7.874;2022-10-26T05:01:38;9.60;;;3.35;;
60675;SDS011;46716;38.014;-7.874;2022-10-26T05:03:39;14.25;;;4.25;;
60675;SDS011;46716;38.014;-7.874;2022-10-26T05:05:40;10.50;;;4.63;;
60675;SDS011;46716;38.014;-7.874;2022-10-26T05:07:41;10.63;;;4.65;;
60675;SDS011;46716;38.014;-7.874;2022-10-26T05:09:42;12.02;;;4.40;;
60675;SDS011;46716;38.014;-7.874;2022-10-26T05:11:43;13.73;;;4.68;;
60675;SDS011;46716;38.014;-7.874;2022-10-26T05:13:45;12.43;;;4.70;;
60675;SDS011;46716;38.014;-7.874;2022-10-26T05:15:47;15.30;;;4.97;;
60675;SDS011;46716;38.014;-7.874;2022-10-26T05:17:57;12.95;;;4.78;;
60675;SDS011;46716;38.014;-7.874;2022-10-26T05:20:00;15.85;;;4.53;;
60675;SDS011;46716;38.014;-7.874;2022-10-26T05:22:05;14.25;;;5.20;;
60675;SDS011;46716;38.014;-7.874;2022-10-26T05:24:06;16.05;;;5.18;;
60675;SDS011;46716;38.014;-7.874;2022-10-26T05:26:07;17.02;;;4.50;;
60675;SDS011;46716;38.014;-7.874;2022-10-26T05:28:08;9.77;;;4.50;;
60675;SDS011;46716;38.014;-7.874;2022-10-26T05:30:12;12.80;;;4.88;;
60675;SDS011;46716;38.014;-7.874;2022-10-26T05:32:13;10.93;;;4.60;;
60675;SDS011;46716;38.014;-7.874;2022-10-26T05:34:14;10.95;;;4.78;;
60675;SDS011;46716;38.014;-7.874;2022-10-26T05:36:18;14.43;;;5.00;;
60675;SDS011;46716;38.014;-7.874;2022-10-26T05:38:19;15.27;;;4.85;;
60675;SDS011;46716;38.014;-7.874;2022-10-26T05:40:20;9.23;;;5.20;;
60675;SDS011;46716;38.014;-7.874;2022-10-26T05:42:22;10.32;;;4.90;;
60675;SDS011;46716;38.014;-7.874;2022-10-26T05:44:24;17.38;;;4.93;;
60675;SDS011;46716;38.014;-7.874;2022-10-26T05:46:27;17.30;;;5.97;;
60675;SDS011;46716;38.014;-7.874;2022-10-26T05:48:28;13.47;;;5.30;;
60675;SDS011;46716;38.014;-7.874;2022-10-26T05:50:29;10.68;;;6.07;;
60675;SDS011;46716;38.014;-7.874;2022-10-26T05:52:32;15.52;;;5.32;;
60675;SDS011;46716;38.014;-7.874;2022-10-26T05:54:41;20.67;;;5.13;;
60675;SDS011;46716;38.014;-7.874;2022-10-26T05:56:42;18.42;;;6.43;;
60675;SDS011;46716;38.014;-7.874;2022-10-26T05:58:43;14.18;;;4.35;;
60675;SDS011;46716;38.014;-7.874;2022-10-26T06:00:51;14.02;;;5.10;;
60675;SDS011;46716;38.014;-7.874;2022-10-26T06:03:26;16.20;;;5.57;;
60675;SDS011;46716;38.014;-7.874;2022-10-26T06:05:32;10.93;;;5.10;;
60675;SDS011;46716;38.014;-7.874;2022-10-26T06:07:41;11.67;;;5.33;;
60675;SDS011;46716;38.014;-7.874;2022-10-26T06:09:43;11.07;;;4.82;;
60675;SDS011;46716;38.014;-7.874;2022-10-26T06:11:44;17.30;;;5.37;;
60675;SDS011;46716;38.014;-7.874;2022-10-26T06:13:45;17.58;;;4.90;;
60675;SDS011;46716;38.014;-7.874;2022-10-26T06:15:50;15.88;;;5.13;;
60675;SDS011;46716;38.014;-7.874;2022-10-26T06:18:20;12.05;;;5.38;;
60675;SDS011;46716;38.014;-7.874;2022-10-26T06:23:15;11.35;;;4.78;;
60675;SDS011;46716;38.014;-7.874;2022-10-26T06:25:41;17.63;;;6.13;;
60675;SDS011;46716;38.014;-7.874;2022-10-26T06:30:07;13.10;;;5.00;;
60675;SDS011;46716;38.014;-7.874;2022-10-26T06:32:11;20.13;;;6.93;;
60675;SDS011;46716;38.014;-7.874;2022-10-26T06:34:13;12.40;;;5.10;;
60675;SDS011;46716;38.014;-7.874;2022-10-26T06:36:23;19.02;;;6.50;;
60675;SDS011;46716;38.014;-7.874;2022-10-26T06:38:27;18.48;;;5.78;;
60675;SDS011;46716;38.014;-7.874;2022-10-26T06:40:31;12.20;;;5.13;;
60675;SDS011;46716;38.014;-7.874;2022-10-26T06:42:34;15.65;;;5.88;;
60675;SDS011;46716;38.014;-7.874;2022-10-26T06:44:36;16.17;;;5.57;;
60675;SDS011;46716;38.014;-7.874;2022-10-26T06:46:42;14.07;;;6.57;;
60675;SDS011;46716;38.014;-7.874;2022-10-26T06:48:59;11.73;;;5.65;;
60675;SDS011;46716;38.014;-7.874;2022-10-26T06:51:17;13.50;;;5.30;;
60675;SDS011;46716;38.014;-7.874;2022-10-26T06:53:30;17.00;;;5.45;;
60675;SDS011;46716;38.014;-7.874;2022-10-26T06:55:42;10.93;;;5.40;;
60675;SDS011;46716;38.014;-7.874;2022-10-26T06:57:45;16.20;;;5.38;;
60675;SDS011;46716;38.014;-7.874;2022-10-26T07:01:59;11.07;;;5.10;;
60675;SDS011;46716;38.014;-7.874;2022-10-26T07:04:00;16.58;;;5.47;;
60675;SDS011;46716;38.014;-7.874;2022-10-26T07:06:01;20.95;;;4.70;;
60675;SDS011;46716;38.014;-7.874;2022-10-26T07:08:03;20.05;;;5.53;;
60675;SDS011;46716;38.014;-7.874;2022-10-26T07:10:04;9.80;;;4.87;;
60675;SDS011;46716;38.014;-7.874;2022-10-26T07:12:06;13.50;;;5.38;;
60675;SDS011;46716;38.014;-7.874;2022-10-26T07:14:07;11.95;;;4.70;;
60675;SDS011;46716;38.014;-7.874;2022-10-26T07:16:08;12.23;;;4.88;;
60675;SDS011;46716;38.014;-7.874;2022-10-26T07:18:09;11.70;;;4.85;;
60675;SDS011;46716;38.014;-7.874;2022-10-26T07:20:11;13.70;;;4.85;;
60675;SDS011;46716;38.014;-7.874;2022-10-26T07:22:12;16.73;;;4.60;;
60675;SDS011;46716;38.014;-7.874;2022-10-26T07:24:13;14.57;;;4.80;;
60675;SDS011;46716;38.014;-7.874;2022-10-26T07:26:14;15.65;;;5.10;;
60675;SDS011;46716;38.014;-7.874;2022-10-26T07:28:15;11.40;;;4.57;;
60675;SDS011;46716;38.014;-7.874;2022-10-26T07:30:16;16.30;;;5.45;;
60675;SDS011;46716;38.014;-7.874;2022-10-26T07:32:17;19.38;;;4.75;;
60675;SDS011;46716;38.014;-7.874;2022-10-26T07:34:18;13.05;;;3.92;;
60675;SDS011;46716;38.014;-7.874;2022-10-26T07:36:19;12.18;;;4.15;;
60675;SDS011;46716;38.014;-7.874;2022-10-26T07:38:20;13.93;;;4.90;;
60675;SDS011;46716;38.014;-7.874;2022-10-26T07:40:21;13.73;;;4.15;;
60675;SDS011;46716;38.014;-7.874;2022-10-26T07:42:22;13.85;;;4.13;;
60675;SDS011;46716;38.014;-7.874;2022-10-26T07:44:23;14.05;;;4.53;;
60675;SDS011;46716;38.014;-7.874;2022-10-26T07:46:24;9.70;;;3.70;;
60675;SDS011;46716;38.014;-7.874;2022-10-26T07:48:25;12.40;;;3.63;;
60675;SDS011;46716;38.014;-7.874;2022-10-26T07:50:26;13.32;;;4.43;;
60675;SDS011;46716;38.014;-7.874;2022-10-26T07:52:28;8.57;;;4.03;;
60675;SDS011;46716;38.014;-7.874;2022-10-26T07:54:29;9.52;;;3.53;;
60675;SDS011;46716;38.014;-7.874;2022-10-26T07:56:30;11.70;;;3.35;;
60675;SDS011;46716;38.014;-7.874;2022-10-26T07:58:31;12.95;;;3.70;;
60675;SDS011;46716;38.014;-7.874;2022-10-26T08:00:32;13.25;;;4.22;;
60675;SDS011;46716;38.014;-7.874;2022-10-26T08:02:33;11.32;;;3.75;;
60675;SDS011;46716;38.014;-7.874;2022-10-26T08:04:35;12.55;;;3.42;;
60675;SDS011;46716;38.014;-7.874;2022-10-26T08:06:36;10.27;;;3.83;;
60675;SDS011;46716;38.014;-7.874;2022-10-26T08:08:37;13.85;;;3.08;;
60675;SDS011;46716;38.014;-7.874;2022-10-26T08:10:41;12.52;;;3.95;;
60675;SDS011;46716;38.014;-7.874;2022-10-26T08:12:43;10.15;;;3.67;;
60675;SDS011;46716;38.014;-7.874;2022-10-26T08:14:47;12.27;;;4.00;;
60675;SDS011;46716;38.014;-7.874;2022-10-26T08:16:48;9.27;;;3.40;;
60675;SDS011;46716;38.014;-7.874;2022-10-26T08:18:51;9.27;;;2.55;;
60675;SDS011;46716;38.014;-7.874;2022-10-26T08:20:52;9.93;;;2.70;;
60675;SDS011;46716;38.014;-7.874;2022-10-26T08:22:57;9.05;;;2.90;;
60675;SDS011;46716;38.014;-7.874;2022-10-26T08:24:59;8.75;;;3.10;;
60675;SDS011;46716;38.014;-7.874;2022-10-26T08:26:59;10.25;;;3.20;;
60675;SDS011;46716;38.014;-7.874;2022-10-26T08:29:00;7.72;;;3.03;;
60675;SDS011;46716;38.014;-7.874;2022-10-26T08:31:02;9.00;;;3.15;;
60675;SDS011;46716;38.014;-7.874;2022-10-26T08:33:04;9.00;;;3.40;;
60675;SDS011;46716;38.014;-7.874;2022-10-26T08:35:07;10.90;;;2.88;;
60675;SDS011;46716;38.014;-7.874;2022-10-26T08:37:09;9.68;;;3.83;;
60675;SDS011;46716;38.014;-7.874;2022-10-26T08:39:09;15.23;;;3.33;;
60675;SDS011;46716;38.014;-7.874;2022-10-26T08:41:11;8.63;;;3.67;;
60675;SDS011;46716;38.014;-7.874;2022-10-26T08:45:46;9.93;;;3.63;;
60675;SDS011;46716;38.014;-7.874;2022-10-26T08:48:14;14.65;;;3.40;;
60675;SDS011;46716;38.014;-7.874;2022-10-26T08:50:26;9.50;;;3.13;;
60675;SDS011;46716;38.014;-7.874;2022-10-26T08:52:37;11.43;;;3.42;;
60675;SDS011;46716;38.014;-7.874;2022-10-26T08:55:01;8.77;;;3.25;;
60675;SDS011;46716;38.014;-7.874;2022-10-26T08:59:38;7.90;;;3.10;;
60675;SDS011;46716;38.014;-7.874;2022-10-26T09:01:43;9.05;;;4.05;;
60675;SDS011;46716;38.014;-7.874;2022-10-26T09:03:44;11.38;;;4.03;;
60675;SDS011;46716;38.014;-7.874;2022-10-26T09:05:52;14.73;;;5.05;;
60675;SDS011;46716;38.014;-7.874;2022-10-26T09:08:21;10.02;;;5.00;;
60675;SDS011;46716;38.014;-7.874;2022-10-26T09:25:03;6.22;;;2.40;;
60675;SDS011;46716;38.014;-7.874;2022-10-26T09:27:20;8.15;;;2.72;;
60675;SDS011;46716;38.014;-7.874;2022-10-26T09:29:35;5.45;;;2.90;;
60675;SDS011;46716;38.014;-7.874;2022-10-26T09:31:44;6.18;;;2.50;;
60675;SDS011;46716;38.014;-7.874;2022-10-26T09:33:50;10.30;;;2.65;;
60675;SDS011;46716;38.014;-7.874;2022-10-26T09:38:12;9.30;;;3.20;;
60675;SDS011;46716;38.014;-7.874;2022-10-26T09:43:19;8.40;;;3.72;;
60675;SDS011;46716;38.014;-7.874;2022-10-26T09:47:36;7.50;;;2.72;;
60675;SDS011;46716;38.014;-7.874;2022-10-26T09:49:46;13.15;;;3.03;;
60675;SDS011;46716;38.014;-7.874;2022-10-26T09:51:52;12.48;;;2.92;;
60675;SDS011;46716;38.014;-7.874;2022-10-26T09:53:55;13.60;;;2.90;;
60675;SDS011;46716;38.014;-7.874;2022-10-26T09:56:04;6.55;;;2.58;;
60675;SDS011;46716;38.014;-7.874;2022-10-26T10:00:41;5.50;;;2.67;;
60675;SDS011;46716;38.014;-7.874;2022-10-26T10:02:44;9.10;;;2.92;;
60675;SDS011;46716;38.014;-7.874;2022-10-26T10:04:50;8.93;;;2.78;;
60675;SDS011;46716;38.014;-7.874;2022-10-26T10:06:52;6.28;;;2.50;;
60675;SDS011;46716;38.014;-7.874;2022-10-26T10:11:15;7.20;;;2.15;;
60675;SDS011;46716;38.014;-7.874;2022-10-26T10:13:18;7.25;;;2.38;;
60675;SDS011;46716;38.014;-7.874;2022-10-26T10:15:22;6.38;;;1.90;;
60675;SDS011;46716;38.014;-7.874;2022-10-26T10:17:25;6.78;;;2.42;;
60675;SDS011;46716;38.014;-7.874;2022-10-26T10:19:29;5.85;;;2.30;;
60675;SDS011;46716;38.014;-7.874;2022-10-26T10:21:35;7.53;;;1.98;;
60675;SDS011;46716;38.014;-7.874;2022-10-26T10:23:48;8.75;;;2.33;;
60675;SDS011;46716;38.014;-7.874;2022-10-26T10:26:00;7.40;;;2.15;;
60675;SDS011;46716;38.014;-7.874;2022-10-26T10:28:24;6.93;;;1.65;;
60675;SDS011;46716;38.014;-7.874;2022-10-26T10:30:27;5.85;;;2.10;;
60675;SDS011;46716;38.014;-7.874;2022-10-26T10:32:30;4.95;;;2.00;;
60675;SDS011;46716;38.014;-7.874;2022-10-26T10:34:32;6.15;;;2.28;;
60675;SDS011;46716;38.014;-7.874;2022-10-26T10:36:35;6.47;;;1.55;;
60675;SDS011;46716;38.014;-7.874;2022-10-26T10:38:37;4.72;;;1.23;;
60675;SDS011;46716;38.014;-7.874;2022-10-26T10:40:40;4.45;;;1.50;;
60675;SDS011;46716;38.014;-7.874;2022-10-26T10:42:51;4.78;;;1.40;;
60675;SDS011;46716;38.014;-7.874;2022-10-26T10:44:55;7.70;;;1.73;;
60675;SDS011;46716;38.014;-7.874;2022-10-26T10:47:01;4.60;;;1.20;;
60675;SDS011;46716;38.014;-7.874;2022-10-26T10:49:05;5.30;;;1.40;;
60675;SDS011;46716;38.014;-7.874;2022-10-26T10:53:28;4.53;;;1.30;;
60675;SDS011;46716;38.014;-7.874;2022-10-26T10:55:30;6.65;;;1.80;;
60675;SDS011;46716;38.014;-7.874;2022-10-26T10:57:34;5.55;;;1.20;;
60675;SDS011;46716;38.014;-7.874;2022-10-26T11:02:34;3.42;;;1.25;;
60675;SDS011;46716;38.014;-7.874;2022-10-26T11:05:03;3.42;;;1.10;;
60675;SDS011;46716;38.014;-7.874;2022-10-26T11:07:26;6.47;;;1.50;;
60675;SDS011;46716;38.014;-7.874;2022-10-26T11:09:30;7.88;;;1.55;;
60675;SDS011;46716;38.014;-7.874;2022-10-26T11:11:38;2.80;;;1.25;;
60675;SDS011;46716;38.014;-7.874;2022-10-26T11:15:55;7.57;;;2.05;;
60675;SDS011;46716;38.014;-7.874;2022-10-26T11:18:03;5.05;;;1.65;;
60675;SDS011;46716;38.014;-7.874;2022-10-26T11:20:11;4.88;;;1.40;;
60675;SDS011;46716;38.014;-7.874;2022-10-26T11:22:18;3.63;;;1.50;;
60675;SDS011;46716;38.014;-7.874;2022-10-26T11:28:58;5.72;;;1.55;;
60675;SDS011;46716;38.014;-7.874;2022-10-26T11:31:08;7.05;;;1.67;;
60675;SDS011;46716;38.014;-7.874;2022-10-26T11:33:27;5.32;;;1.73;;
60675;SDS011;46716;38.014;-7.874;2022-10-26T11:37:58;5.07;;;1.20;;
60675;SDS011;46716;38.014;-7.874;2022-10-26T11:42:49;3.50;;;1.40;;
60675;SDS011;46716;38.014;-7.874;2022-10-26T11:45:03;11.45;;;3.30;;
60675;SDS011;46716;38.014;-7.874;2022-10-26T11:47:17;4.93;;;1.10;;
60675;SDS011;46716;38.014;-7.874;2022-10-26T11:49:32;3.80;;;1.10;;
60675;SDS011;46716;38.014;-7.874;2022-10-26T11:51:49;5.18;;;1.33;;
60675;SDS011;46716;38.014;-7.874;2022-10-26T11:53:56;5.32;;;1.52;;
60675;SDS011;46716;38.014;-7.874;2022-10-26T11:56:01;4.38;;;1.13;;
60675;SDS011;46716;38.014;-7.874;2022-10-26T11:58:04;3.70;;;0.60;;
60675;SDS011;46716;38.014;-7.874;2022-10-26T12:02:22;3.25;;;0.80;;
60675;SDS011;46716;38.014;-7.874;2022-10-26T12:04:27;2.05;;;0.70;;
60675;SDS011;46716;38.014;-7.874;2022-10-26T12:06:32;4.50;;;0.82;;
60675;SDS011;46716;38.014;-7.874;2022-10-26T12:08:37;2.58;;;0.70;;
60675;SDS011;46716;38.014;-7.874;2022-10-26T12:10:42;1.52;;;0.52;;
60675;SDS011;46716;38.014;-7.874;2022-10-26T12:12:56;2.53;;;0.57;;
60675;SDS011;46716;38.014;-7.874;2022-10-26T12:15:23;2.05;;;0.60;;
60675;SDS011;46716;38.014;-7.874;2022-10-26T12:19:46;3.63;;;0.77;;
60675;SDS011;46716;38.014;-7.874;2022-10-26T12:21:52;6.55;;;0.85;;
60675;SDS011;46716;38.014;-7.874;2022-10-26T12:26:46;7.40;;;1.30;;
60675;SDS011;46716;38.014;-7.874;2022-10-26T12:31:47;4.38;;;0.85;;
60675;SDS011;46716;38.014;-7.874;2022-10-26T12:33:49;3.22;;;0.88;;
60675;SDS011;46716;38.014;-7.874;2022-10-26T12:35:50;2.92;;;0.70;;
60675;SDS011;46716;38.014;-7.874;2022-10-26T12:37:51;4.53;;;0.82;;
60675;SDS011;46716;38.014;-7.874;2022-10-26T12:39:52;4.80;;;0.90;;
60675;SDS011;46716;38.014;-7.874;2022-10-26T12:41:54;4.15;;;1.08;;
60675;SDS011;46716;38.014;-7.874;2022-10-26T12:43:58;4.82;;;1.15;;
60675;SDS011;46716;38.014;-7.874;2022-10-26T12:48:20;4.50;;;0.95;;
60675;SDS011;46716;38.014;-7.874;2022-10-26T12:50:26;6.65;;;1.52;;
60675;SDS011;46716;38.014;-7.874;2022-10-26T12:52:40;11.90;;;1.60;;
60675;SDS011;46716;38.014;-7.874;2022-10-26T12:54:59;8.27;;;1.40;;
60675;SDS011;46716;38.014;-7.874;2022-10-26T12:57:26;7.10;;;1.30;;
60675;SDS011;46716;38.014;-7.874;2022-10-26T12:59:38;8.80;;;1.45;;
60675;SDS011;46716;38.014;-7.874;2022-10-26T13:02:02;4.32;;;1.20;;
60675;SDS011;46716;38.014;-7.874;2022-10-26T13:09:30;10.38;;;1.88;;
60675;SDS011;46716;38.014;-7.874;2022-10-26T13:11:37;10.88;;;1.38;;
60675;SDS011;46716;38.014;-7.874;2022-10-26T13:13:53;6.38;;;0.95;;
60675;SDS011;46716;38.014;-7.874;2022-10-26T13:15:58;10.52;;;1.42;;
60675;SDS011;46716;38.014;-7.874;2022-10-26T13:18:15;5.60;;;1.40;;
60675;SDS011;46716;38.014;-7.874;2022-10-26T13:20:18;8.35;;;2.03;;
60675;SDS011;46716;38.014;-7.874;2022-10-26T13:22:20;5.97;;;1.13;;
60675;SDS011;46716;38.014;-7.874;2022-10-26T13:24:22;4.57;;;1.50;;
60675;SDS011;46716;38.014;-7.874;2022-10-26T13:26:25;7.30;;;1.50;;
60675;SDS011;46716;38.014;-7.874;2022-10-26T13:30:43;7.82;;;1.60;;
60675;SDS011;46716;38.014;-7.874;2022-10-26T13:32:48;10.15;;;1.85;;
60675;SDS011;46716;38.014;-7.874;2022-10-26T13:34:53;7.50;;;1.60;;
60675;SDS011;46716;38.014;-7.874;2022-10-26T13:37:04;9.10;;;1.50;;
60675;SDS011;46716;38.014;-7.874;2022-10-26T13:42:00;9.88;;;2.05;;
60675;SDS011;46716;38.014;-7.874;2022-10-26T13:44:03;8.98;;;1.80;;
60675;SDS011;46716;38.014;-7.874;2022-10-26T13:46:18;13.90;;;2.10;;
60675;SDS011;46716;38.014;-7.874;2022-10-26T13:50:54;8.77;;;1.70;;
60675;SDS011;46716;38.014;-7.874;2022-10-26T13:53:06;9.00;;;1.63;;
60675;SDS011;46716;38.014;-7.874;2022-10-26T13:55:26;6.60;;;1.85;;
60675;SDS011;46716;38.014;-7.874;2022-10-26T14:00:27;7.97;;;1.85;;
60675;SDS011;46716;38.014;-7.874;2022-10-26T14:02:39;11.68;;;1.90;;
60675;SDS011;46716;38.014;-7.874;2022-10-26T14:04:58;11.88;;;2.17;;
60675;SDS011;46716;38.014;-7.874;2022-10-26T14:07:00;10.35;;;1.83;;
60675;SDS011;46716;38.014;-7.874;2022-10-26T14:09:17;8.20;;;2.35;;
60675;SDS011;46716;38.014;-7.874;2022-10-26T14:13:55;8.80;;;1.60;;
60675;SDS011;46716;38.014;-7.874;2022-10-26T14:16:16;6.38;;;1.90;;